createdAt,value
2023-02-08T00:01:07.587Z,103079.63
2023-02-08T00:03:35.126Z,103084.13
2023-02-08T00:06:02.860Z,103082.53
2023-02-08T00:08:30.929Z,103079.63
2023-02-08T00:10:58.187Z,103073.44
2023-02-08T00:13:26.061Z,103079.16
2023-02-08T00:15:54.647Z,103068.94
2023-02-08T00:18:22.460Z,103079.16
2023-02-08T00:20:50.062Z,103063.91
2023-02-08T00:23:17.418Z,103070.34
2023-02-08T00:25:44.737Z,103071.41
2023-02-08T00:28:13.940Z,103065.22
2023-02-08T00:30:43.578Z,103059.97
2023-02-08T00:33:12.394Z,103056.53
2023-02-08T00:35:41.102Z,103061.09
2023-02-08T00:38:08.447Z,103055.16
2023-02-08T00:40:35.700Z,103056.19
2023-02-08T00:43:03.659Z,103049.25
2023-02-08T00:45:32.093Z,103045.19
2023-02-08T00:47:59.549Z,103046.72
2023-02-08T00:50:26.801Z,103046.56
2023-02-08T00:52:54.049Z,103056.78
2023-02-08T00:55:21.300Z,103054.00
2023-02-08T00:57:48.559Z,103052.00
2023-02-08T01:00:16.032Z,103054.72
2023-02-08T01:02:43.347Z,103053.72
2023-02-08T01:05:11.924Z,103044.50
2023-02-08T01:07:40.164Z,103051.84
2023-02-08T01:10:12.471Z,103053.72
2023-02-08T01:12:41.365Z,103050.59
2023-02-08T01:15:09.135Z,103053.22
2023-02-08T01:17:36.451Z,103049.38
2023-02-08T01:20:03.938Z,103054.03
2023-02-08T01:22:31.149Z,103057.59
2023-02-08T01:24:58.366Z,103062.25
2023-02-08T01:27:25.786Z,103060.81
2023-02-08T01:29:53.397Z,103066.47
2023-02-08T01:32:20.790Z,103066.22
2023-02-08T01:34:48.069Z,103068.13
2023-02-08T01:37:15.359Z,103069.38
2023-02-08T01:39:42.634Z,103083.69
2023-02-08T01:42:13.997Z,103075.28
2023-02-08T01:45:23.002Z,103071.06
2023-02-08T01:47:54.089Z,103074.00
2023-02-08T01:50:24.533Z,103073.59
2023-02-08T01:52:52.059Z,103074.03
2023-02-08T01:55:27.386Z,103074.63
2023-02-08T01:57:56.413Z,103077.16
2023-02-08T02:00:24.562Z,103067.09
2023-02-08T02:02:54.224Z,103073.59
2023-02-08T02:05:23.243Z,103075.50
2023-02-08T02:07:52.217Z,103074.44
2023-02-08T02:10:26.998Z,103065.84
2023-02-08T02:12:55.784Z,103068.34
2023-02-08T02:15:23.666Z,103066.03
2023-02-08T02:17:50.918Z,103059.97
2023-02-08T02:20:40.185Z,103055.81
2023-02-08T02:23:13.408Z,103056.63
2023-02-08T02:25:49.784Z,103050.13
2023-02-08T02:28:43.233Z,103051.34
2023-02-08T02:32:08.051Z,103040.69
2023-02-08T02:34:46.802Z,103036.41
2023-02-08T02:37:29.039Z,103039.53
2023-02-08T02:40:20.442Z,103028.31
2023-02-08T02:43:15.259Z,103023.06
2023-02-08T02:46:19.909Z,103030.00
2023-02-08T02:49:02.523Z,103027.28
2023-02-08T02:51:40.816Z,103012.00
2023-02-08T02:54:41.083Z,103011.97
2023-02-08T02:57:11.582Z,103011.97
2023-02-08T02:59:39.663Z,103020.16
2023-02-08T03:02:06.915Z,103010.72
2023-02-08T03:04:34.187Z,103010.53
2023-02-08T03:07:10.508Z,103009.03
2023-02-08T03:10:05.637Z,103011.16
2023-02-08T03:12:57.769Z,103001.53
2023-02-08T03:15:46.642Z,103002.78
2023-02-08T03:18:26.134Z,103001.50
2023-02-08T03:21:28.157Z,103005.50
2023-02-08T03:24:07.566Z,103013.25
2023-02-08T03:26:39.084Z,103010.94
2023-02-08T03:29:12.617Z,103005.28
2023-02-08T03:31:51.775Z,103008.44
2023-02-08T03:34:44.662Z,103004.66
2023-02-08T03:37:17.979Z,102993.13
2023-02-08T03:39:47.081Z,103001.91
2023-02-08T03:42:21.698Z,103006.09
2023-02-08T03:44:57.317Z,102994.81
2023-02-08T03:47:30.330Z,102993.34
2023-02-08T03:50:00.511Z,103003.59
2023-02-08T03:52:28.770Z,103007.13
2023-02-08T03:55:01.410Z,103008.59
2023-02-08T03:57:36.044Z,103016.81
2023-02-08T04:00:09.773Z,103018.28
2023-02-08T04:02:44.204Z,103015.53
2023-02-08T04:05:11.778Z,103014.06
2023-02-08T04:07:39.073Z,103013.25
2023-02-08T04:10:06.640Z,103017.84
2023-02-08T04:12:33.883Z,103011.28
2023-02-08T04:15:01.220Z,103010.44
2023-02-08T04:17:28.504Z,103014.25
2023-02-08T04:19:55.761Z,103009.63
2023-02-08T04:22:23.045Z,103009.03
2023-02-08T04:24:50.237Z,103011.97
2023-02-08T04:27:17.759Z,103005.47
2023-02-08T04:29:45.013Z,103011.13
2023-02-08T04:32:13.480Z,103000.00
2023-02-08T04:34:41.308Z,103000.16
2023-02-08T04:37:08.906Z,102996.16
2023-02-08T04:39:36.238Z,102987.56
2023-02-08T04:42:03.562Z,102985.50
2023-02-08T04:44:32.878Z,102976.03
2023-02-08T04:47:00.508Z,102987.69
2023-02-08T04:49:27.876Z,102980.38
2023-02-08T04:51:55.200Z,102979.94
2023-02-08T04:54:23.040Z,102974.72
2023-02-08T04:56:50.314Z,102972.03
2023-02-08T04:59:18.419Z,102978.22
2023-02-08T05:01:45.961Z,102977.50
2023-02-08T05:04:13.344Z,102973.28
2023-02-08T05:06:40.695Z,102963.47
2023-02-08T05:09:09.222Z,102975.16
2023-02-08T05:11:36.842Z,102963.22
2023-02-08T05:14:04.729Z,102969.53
2023-02-08T05:16:32.183Z,102968.03
2023-02-08T05:18:59.515Z,102954.88
2023-02-08T05:21:27.002Z,102965.53
2023-02-08T05:23:54.360Z,102966.81
2023-02-08T05:26:21.734Z,102974.22
2023-02-08T05:28:49.068Z,102971.34
2023-02-08T05:31:25.506Z,102972.81
2023-02-08T05:33:53.540Z,102973.66
2023-02-08T05:36:21.277Z,102966.34
2023-02-08T05:38:49.243Z,102965.91
2023-02-08T05:41:17.263Z,102966.81
2023-02-08T05:43:45.928Z,102962.69
2023-02-08T05:46:13.731Z,102967.66
2023-02-08T05:48:41.111Z,102963.09
2023-02-08T05:51:08.688Z,102968.09
2023-02-08T05:53:36.814Z,102972.94
2023-02-08T05:56:05.216Z,102973.00
2023-02-08T05:58:33.799Z,102969.44
2023-02-08T06:01:01.232Z,102970.72
2023-02-08T06:03:31.307Z,102965.16
2023-02-08T06:06:01.015Z,102970.72
2023-02-08T06:08:28.525Z,102981.94
2023-02-08T06:10:55.770Z,102960.34
2023-02-08T06:13:23.196Z,102968.69
2023-02-08T06:15:50.449Z,102960.34
2023-02-08T06:18:18.553Z,102964.13
2023-02-08T06:20:46.008Z,102967.63
2023-02-08T06:23:13.283Z,102969.78
2023-02-08T06:25:40.534Z,102973.69
2023-02-08T06:28:10.740Z,102979.53
2023-02-08T06:30:39.115Z,102990.16
2023-02-08T06:33:06.552Z,102997.09
2023-02-08T06:35:34.035Z,102997.06
2023-02-08T06:38:01.358Z,102989.72
2023-02-08T06:40:28.756Z,102992.84
2023-02-08T06:42:56.392Z,103004.50
2023-02-08T06:45:23.780Z,103000.28
2023-02-08T06:47:51.342Z,102997.78
2023-02-08T06:50:18.741Z,102995.66
2023-02-08T06:52:45.963Z,102997.38
2023-02-08T06:55:13.798Z,102996.78
2023-02-08T06:57:41.091Z,102998.00
2023-02-08T07:00:09.134Z,102994.94
2023-02-08T07:02:37.489Z,102994.88
2023-02-08T07:05:05.132Z,103000.28
2023-02-08T07:07:33.185Z,103006.66
2023-02-08T07:10:00.764Z,102998.53
2023-02-08T07:12:28.242Z,103002.44
2023-02-08T07:14:55.560Z,103012.81
2023-02-08T07:17:23.349Z,103000.28
2023-02-08T07:19:51.087Z,103000.84
2023-02-08T07:22:18.358Z,103004.81
2023-02-08T07:24:45.637Z,102999.22
2023-02-08T07:27:13.573Z,102998.56
2023-02-08T07:29:41.266Z,103003.97
2023-02-08T07:32:08.778Z,102996.59
2023-02-08T07:34:37.690Z,102989.56
2023-02-08T07:37:05.182Z,102996.53
2023-02-08T07:39:32.728Z,102993.44
2023-02-08T07:42:00.321Z,102999.22
2023-02-08T07:44:32.402Z,102989.34
2023-02-08T07:47:01.691Z,102994.75
2023-02-08T07:49:29.061Z,102994.44
2023-02-08T07:51:57.261Z,102987.22
2023-02-08T07:54:24.623Z,102988.56
2023-02-08T07:56:51.896Z,102991.50
2023-02-08T07:59:19.503Z,102989.97
2023-02-08T08:01:53.610Z,102991.97
2023-02-08T08:04:22.104Z,102994.53
2023-02-08T08:06:51.466Z,102993.78
2023-02-08T08:09:20.313Z,102986.41
2023-02-08T08:11:47.561Z,102990.41
2023-02-08T08:14:14.891Z,102973.44
2023-02-08T08:16:44.523Z,102989.78
2023-02-08T08:19:12.333Z,102983.66
2023-02-08T08:21:40.877Z,102980.78
2023-02-08T08:24:08.409Z,102976.50
2023-02-08T08:26:35.665Z,102979.41
2023-02-08T08:29:03.090Z,102977.06
2023-02-08T08:31:31.037Z,102976.94
2023-02-08T08:33:58.505Z,102976.91
2023-02-08T08:36:25.839Z,102970.25
2023-02-08T08:38:53.262Z,102979.06
2023-02-08T08:41:22.777Z,102974.03
2023-02-08T08:43:50.137Z,102976.38
2023-02-08T08:46:18.327Z,102969.22
2023-02-08T08:48:46.888Z,102972.25
2023-02-08T08:51:14.572Z,102968.13
2023-02-08T08:53:41.816Z,102970.25
2023-02-08T08:56:09.230Z,102962.94
2023-02-08T08:58:36.605Z,102957.06
2023-02-08T09:01:04.098Z,102963.94
2023-02-08T09:03:31.586Z,102957.25
2023-02-08T09:05:58.941Z,102949.34
2023-02-08T09:08:26.382Z,102948.09
2023-02-08T09:10:53.692Z,102949.56
2023-02-08T09:13:21.942Z,102945.16
2023-02-08T09:15:49.497Z,102943.47
2023-02-08T09:18:16.982Z,102940.91
2023-02-08T09:20:45.167Z,102936.97
2023-02-08T09:23:12.936Z,102936.91
2023-02-08T09:25:40.190Z,102939.69
2023-02-08T09:28:08.144Z,102939.63
2023-02-08T09:30:35.520Z,102936.53
2023-02-08T09:33:02.803Z,102929.22
2023-02-08T09:35:30.312Z,102935.75
2023-02-08T09:37:58.364Z,102931.16
2023-02-08T09:40:28.851Z,102921.72
2023-02-08T09:43:10.062Z,102922.97
2023-02-08T09:45:41.333Z,102919.63
2023-02-08T09:48:24.588Z,102922.78
2023-02-08T09:51:04.980Z,102917.13
2023-02-08T09:53:40.355Z,102908.97
2023-02-08T09:56:12.235Z,102904.13
2023-02-08T09:58:49.601Z,102904.06
2023-02-08T10:01:21.756Z,102904.69
2023-02-08T10:03:51.524Z,102908.50
2023-02-08T10:06:20.145Z,102918.34
2023-02-08T10:08:50.185Z,102911.84
2023-02-08T10:11:28.379Z,102907.41
2023-02-08T10:13:55.752Z,102912.00
2023-02-08T10:16:36.850Z,102907.19
2023-02-08T10:19:34.988Z,102904.66
2023-02-08T10:22:05.079Z,102915.13
2023-02-08T10:24:50.399Z,102902.50
2023-02-08T10:27:40.839Z,102907.44
2023-02-08T10:30:28.882Z,102916.44
2023-02-08T10:33:02.399Z,102914.28
2023-02-08T10:35:37.311Z,102914.69
2023-02-08T10:38:45.361Z,102919.81
2023-02-08T10:41:34.399Z,102913.56
2023-02-08T10:44:12.487Z,102916.84
2023-02-08T10:46:47.942Z,102908.09
2023-02-08T10:49:38.168Z,102911.69
2023-02-08T10:52:06.195Z,102909.97
2023-02-08T10:54:36.630Z,102915.06
2023-02-08T10:57:07.424Z,102918.16
2023-02-08T10:59:59.012Z,102920.25
2023-02-08T11:02:28.817Z,102912.34
2023-02-08T11:05:04.128Z,102905.75
2023-02-08T11:07:33.618Z,102894.78
2023-02-08T11:10:14.642Z,102905.81
2023-02-08T11:12:44.249Z,102908.16
2023-02-08T11:15:47.802Z,102905.53
2023-02-08T11:18:26.904Z,102902.25
2023-02-08T11:21:00.110Z,102908.53
2023-02-08T11:23:32.783Z,102899.44
2023-02-08T11:26:31.263Z,102894.63
2023-02-08T11:28:58.537Z,102884.97
2023-02-08T11:31:26.008Z,102880.94
2023-02-08T11:34:05.509Z,102886.44
2023-02-08T11:36:34.773Z,102886.19
2023-02-08T11:39:04.637Z,102883.78
2023-02-08T11:41:34.054Z,102873.84
2023-02-08T11:44:06.193Z,102879.31
2023-02-08T11:46:35.413Z,102872.19
2023-02-08T11:49:03.926Z,102868.56
2023-02-08T11:51:37.164Z,102866.13
2023-02-08T11:54:06.469Z,102869.94
2023-02-08T11:56:38.283Z,102863.34
2023-02-08T11:59:23.250Z,102853.56
2023-02-08T12:01:50.758Z,102850.97
2023-02-08T12:04:18.044Z,102845.03
2023-02-08T12:07:27.755Z,102854.94
2023-02-08T12:10:03.503Z,102855.59
2023-02-08T12:12:53.636Z,102844.66
2023-02-08T12:15:24.058Z,102852.81
2023-02-08T12:18:04.320Z,102847.16
2023-02-08T12:20:45.384Z,102845.53
2023-02-08T12:23:34.994Z,102846.09
2023-02-08T12:26:17.055Z,102840.63
2023-02-08T12:28:50.274Z,102849.56
2023-02-08T12:31:27.909Z,102847.63
2023-02-08T12:34:16.013Z,102834.66
2023-02-08T12:37:20.915Z,102829.63
2023-02-08T12:40:19.186Z,102831.16
2023-02-08T12:43:03.757Z,102824.22
2023-02-08T12:45:43.711Z,102816.75
2023-02-08T12:48:48.305Z,102803.00
2023-02-08T12:51:27.771Z,102794.28
2023-02-08T12:54:03.057Z,102781.53
2023-02-08T12:56:34.124Z,102788.91
2023-02-08T12:59:13.071Z,102783.41
2023-02-08T13:01:44.448Z,102773.00
2023-02-08T13:04:26.136Z,102767.41
2023-02-08T13:06:57.019Z,102766.28
2023-02-08T13:09:35.363Z,102748.84
2023-02-08T13:12:16.562Z,102748.25
2023-02-08T13:14:52.856Z,102742.16
2023-02-08T13:17:29.245Z,102738.34
2023-02-08T13:20:26.012Z,102738.44
2023-02-08T13:22:56.930Z,102728.44
2023-02-08T13:25:30.906Z,102722.34
2023-02-08T13:28:03.890Z,102725.91
2023-02-08T13:30:32.516Z,102716.75
2023-02-08T13:33:05.827Z,102719.78
2023-02-08T13:35:33.620Z,102716.50
2023-02-08T13:38:05.012Z,102703.00
2023-02-08T13:40:34.876Z,102709.66
2023-02-08T13:43:09.325Z,102695.69
2023-02-08T13:45:41.823Z,102703.53
2023-02-08T13:48:12.174Z,102704.44
2023-02-08T13:50:45.400Z,102705.25
2023-02-08T13:53:14.989Z,102704.06
2023-02-08T13:55:53.512Z,102702.53
2023-02-08T13:58:28.470Z,102698.09
2023-02-08T14:00:56.556Z,102699.59
2023-02-08T14:03:31.047Z,102697.84
2023-02-08T14:06:04.252Z,102704.63
2023-02-08T14:08:39.766Z,102699.59
2023-02-08T14:11:39.211Z,102687.25
2023-02-08T14:14:14.102Z,102671.97
2023-02-08T14:16:45.846Z,102677.94
2023-02-08T14:19:15.893Z,102675.53
2023-02-08T14:21:43.810Z,102662.44
2023-02-08T14:24:27.484Z,102668.22
2023-02-08T14:27:09.197Z,102661.56
2023-02-08T14:29:37.412Z,102658.38
2023-02-08T14:32:05.138Z,102662.44
2023-02-08T14:34:35.684Z,102662.00
2023-02-08T14:37:06.760Z,102659.16
2023-02-08T14:39:35.186Z,102662.06
2023-02-08T14:42:07.440Z,102658.47
2023-02-08T14:44:37.885Z,102651.72
2023-02-08T14:47:26.837Z,102646.50
2023-02-08T14:50:38.735Z,102640.47
2023-02-08T14:53:16.693Z,102642.09
2023-02-08T14:55:51.479Z,102640.34
2023-02-08T14:58:28.427Z,102641.25
2023-02-08T15:00:57.939Z,102634.88
2023-02-08T15:03:26.997Z,102637.41
2023-02-08T15:06:06.472Z,102637.84
2023-02-08T15:08:33.980Z,102642.09
2023-02-08T15:11:01.312Z,102651.88
2023-02-08T15:13:29.670Z,102648.75
2023-02-08T15:15:57.727Z,102656.81
2023-02-08T15:18:29.599Z,102647.25
2023-02-08T15:21:05.872Z,102650.75
2023-02-08T15:23:33.476Z,102645.72
2023-02-08T15:26:03.560Z,102641.88
2023-02-08T15:28:31.594Z,102640.22
2023-02-08T15:31:02.396Z,102632.28
2023-02-08T15:33:29.870Z,102632.97
2023-02-08T15:35:59.006Z,102620.19
2023-02-08T15:38:26.574Z,102625.09
2023-02-08T15:41:09.843Z,102619.72
2023-02-08T15:43:39.002Z,102628.81
2023-02-08T15:46:16.514Z,102625.34
2023-02-08T15:48:48.014Z,102621.91
2023-02-08T15:51:16.226Z,102616.31
2023-02-08T15:53:49.847Z,102614.63
2023-02-08T15:56:42.722Z,102619.97
2023-02-08T15:59:17.696Z,102621.13
2023-02-08T16:01:48.736Z,102614.22
2023-02-08T16:04:16.388Z,102610.50
2023-02-08T16:07:01.935Z,102610.50
2023-02-08T16:09:30.308Z,102605.28
2023-02-08T16:11:59.837Z,102604.00
2023-02-08T16:14:30.196Z,102604.31
2023-02-08T16:16:59.464Z,102606.38
2023-02-08T16:19:27.692Z,102613.06
2023-02-08T16:22:16.932Z,102604.00
2023-02-08T16:24:46.907Z,102606.47
2023-02-08T16:27:24.295Z,102599.53
2023-02-08T16:29:51.771Z,102594.84
2023-02-08T16:32:29.300Z,102597.03
2023-02-08T16:34:56.918Z,102598.53
2023-02-08T16:37:40.971Z,102599.78
2023-02-08T16:40:43.765Z,102599.34
2023-02-08T16:43:18.033Z,102598.75
2023-02-08T16:45:45.856Z,102608.06
2023-02-08T16:48:39.077Z,102612.09
2023-02-08T16:51:26.034Z,102615.84
2023-02-08T16:54:01.084Z,102616.44
2023-02-08T16:56:35.245Z,102615.88
2023-02-08T16:59:03.045Z,102607.97
2023-02-08T17:01:31.046Z,102616.19
2023-02-08T17:04:00.313Z,102621.66
2023-02-08T17:06:30.352Z,102615.34
2023-02-08T17:08:58.527Z,102621.13
2023-02-08T17:11:26.375Z,102618.41
2023-02-08T17:13:54.688Z,102622.34
2023-02-08T17:16:24.680Z,102617.22
2023-02-08T17:18:52.414Z,102620.66
2023-02-08T17:21:20.434Z,102621.22
2023-02-08T17:23:47.953Z,102633.78
2023-02-08T17:26:23.206Z,102628.53
2023-02-08T17:28:50.925Z,102633.75
2023-02-08T17:31:19.132Z,102637.09
2023-02-08T17:33:46.731Z,102647.25
2023-02-08T17:36:15.651Z,102644.00
2023-02-08T17:38:45.828Z,102639.72
2023-02-08T17:41:15.612Z,102644.97
2023-02-08T17:43:43.186Z,102650.00
2023-02-08T17:46:12.658Z,102648.84
2023-02-08T17:48:40.273Z,102649.66
2023-02-08T17:51:15.993Z,102651.41
2023-02-08T17:53:44.557Z,102649.28
2023-02-08T17:56:18.581Z,102647.63
2023-02-08T17:58:48.928Z,102648.94
2023-02-08T18:01:21.902Z,102649.75
2023-02-08T18:03:50.657Z,102661.94
2023-02-08T18:06:20.706Z,102645.28
2023-02-08T18:08:48.192Z,102644.50
2023-02-08T18:11:19.724Z,102649.78
2023-02-08T18:13:48.565Z,102647.16
2023-02-08T18:16:26.355Z,102650.03
2023-02-08T18:18:58.445Z,102642.06
2023-02-08T18:21:28.965Z,102646.13
2023-02-08T18:23:56.525Z,102655.69
2023-02-08T18:26:26.022Z,102651.09
2023-02-08T18:28:53.742Z,102654.69
2023-02-08T18:31:21.581Z,102655.75
2023-02-08T18:33:49.825Z,102658.00
2023-02-08T18:36:18.134Z,102660.50
2023-02-08T18:38:47.133Z,102652.03
2023-02-08T18:41:17.214Z,102650.84
2023-02-08T18:43:44.771Z,102651.34
2023-02-08T18:46:15.322Z,102654.06
2023-02-08T18:48:43.834Z,102668.47
2023-02-08T18:51:14.413Z,102658.38
2023-02-08T18:53:42.310Z,102655.41
2023-02-08T18:56:11.658Z,102656.69
2023-02-08T18:58:39.644Z,102670.84
2023-02-08T19:01:13.787Z,102672.75
2023-02-08T19:03:41.317Z,102668.00
2023-02-08T19:06:11.321Z,102660.16
2023-02-08T19:08:40.324Z,102668.81
2023-02-08T19:11:28.816Z,102661.53
2023-02-08T19:13:57.534Z,102661.44
2023-02-08T19:16:25.606Z,102647.75
2023-02-08T19:18:53.516Z,102649.06
2023-02-08T19:21:21.569Z,102651.94
2023-02-08T19:23:53.736Z,102647.75
2023-02-08T19:26:26.870Z,102651.69
2023-02-08T19:28:59.321Z,102651.47
2023-02-08T19:31:28.162Z,102644.66
2023-02-08T19:33:58.765Z,102646.94
2023-02-08T19:36:38.793Z,102641.69
2023-02-08T19:39:06.783Z,102637.44
2023-02-08T19:41:37.107Z,102640.75
2023-02-08T19:44:07.317Z,102632.19
2023-02-08T19:46:38.681Z,102636.00
2023-02-08T19:49:10.328Z,102636.13
2023-02-08T19:51:38.212Z,102633.13
2023-02-08T19:54:09.626Z,102637.06
2023-02-08T19:56:37.253Z,102631.25
2023-02-08T19:59:08.555Z,102637.28
2023-02-08T20:01:36.500Z,102639.81
2023-02-08T20:04:05.788Z,102634.47
2023-02-08T20:06:35.827Z,102633.25
2023-02-08T20:09:04.703Z,102632.78
2023-02-08T20:11:35.971Z,102636.47
2023-02-08T20:14:05.938Z,102639.44
2023-02-08T20:16:33.941Z,102640.66
2023-02-08T20:19:01.549Z,102635.81
2023-02-08T20:21:32.885Z,102635.91
2023-02-08T20:24:14.393Z,102634.03
2023-02-08T20:26:51.957Z,102637.78
2023-02-08T20:29:22.780Z,102633.84
2023-02-08T20:31:55.703Z,102633.22
2023-02-08T20:34:23.573Z,102632.00
2023-02-08T20:37:05.792Z,102637.91
2023-02-08T20:39:38.399Z,102632.94
2023-02-08T20:42:06.307Z,102634.81
2023-02-08T20:44:34.472Z,102636.72
2023-02-08T20:47:04.563Z,102625.41
2023-02-08T20:49:33.089Z,102633.19
2023-02-08T20:52:00.882Z,102638.16
2023-02-08T20:54:31.122Z,102632.63
2023-02-08T20:57:04.831Z,102625.88
2023-02-08T20:59:35.626Z,102625.56
2023-02-08T21:02:05.267Z,102619.91
2023-02-08T21:04:38.724Z,102624.41
2023-02-08T21:07:06.313Z,102627.16
2023-02-08T21:09:33.573Z,102622.69
2023-02-08T21:12:10.162Z,102619.16
2023-02-08T21:14:37.916Z,102614.00
2023-02-08T21:17:10.741Z,102616.31
2023-02-08T21:19:39.643Z,102613.38
2023-02-08T21:22:09.637Z,102623.75
2023-02-08T21:24:37.056Z,102619.03
2023-02-08T21:27:07.367Z,102616.25
2023-02-08T21:29:37.993Z,102612.00
2023-02-08T21:32:05.673Z,102617.16
2023-02-08T21:34:33.384Z,102613.91
2023-02-08T21:37:00.999Z,102612.69
2023-02-08T21:39:28.309Z,102604.22
2023-02-08T21:41:55.746Z,102614.03
2023-02-08T21:44:23.728Z,102609.06
2023-02-08T21:46:51.171Z,102613.97
2023-02-08T21:49:37.218Z,102617.44
2023-02-08T21:52:23.049Z,102620.19
2023-02-08T21:54:53.803Z,102615.34
2023-02-08T21:57:23.782Z,102616.56
2023-02-08T21:59:53.592Z,102605.72
2023-02-08T22:02:26.303Z,102614.13
2023-02-08T22:05:14.604Z,102614.81
2023-02-08T22:07:43.287Z,102610.72
2023-02-08T22:10:12.050Z,102615.56
2023-02-08T22:12:41.909Z,102611.69
2023-02-08T22:15:11.651Z,102619.59
2023-02-08T22:17:53.769Z,102610.84
2023-02-08T22:20:22.204Z,102616.63
2023-02-08T22:22:54.859Z,102604.28
2023-02-08T22:25:24.972Z,102603.50
2023-02-08T22:27:57.095Z,102612.47
2023-02-08T22:30:25.663Z,102605.34
2023-02-08T22:32:53.170Z,102613.84
2023-02-08T22:35:20.511Z,102616.03
2023-02-08T22:37:47.884Z,102627.13
2023-02-08T22:40:15.331Z,102614.56
2023-02-08T22:42:42.918Z,102614.50
2023-02-08T22:45:10.382Z,102609.88
2023-02-08T22:47:38.122Z,102617.91
2023-02-08T22:50:08.860Z,102615.41
2023-02-08T22:52:36.302Z,102615.91
2023-02-08T22:55:04.710Z,102603.03
2023-02-08T22:57:34.248Z,102600.09
2023-02-08T23:00:01.770Z,102600.75
2023-02-08T23:02:29.058Z,102602.16
2023-02-08T23:04:56.493Z,102601.44
2023-02-08T23:07:23.912Z,102604.84
2023-02-08T23:09:51.198Z,102611.97
2023-02-08T23:12:18.496Z,102617.34
2023-02-08T23:14:46.002Z,102623.56
2023-02-08T23:17:13.342Z,102616.28
2023-02-08T23:19:40.702Z,102619.13
2023-02-08T23:22:08.610Z,102613.88
2023-02-08T23:24:35.926Z,102615.53
2023-02-08T23:27:03.219Z,102620.28
2023-02-08T23:29:30.712Z,102603.94
2023-02-08T23:31:58.058Z,102609.06
2023-02-08T23:34:25.398Z,102596.03
2023-02-08T23:36:52.786Z,102604.94
2023-02-08T23:39:20.135Z,102610.50
2023-02-08T23:41:47.482Z,102611.72
2023-02-08T23:44:14.894Z,102607.13
2023-02-08T23:46:42.392Z,102604.84
2023-02-08T23:49:09.705Z,102607.97
2023-02-08T23:51:37.059Z,102607.97
2023-02-08T23:54:04.549Z,102607.97
2023-02-08T23:56:32.456Z,102615.16
2023-02-08T23:59:00.009Z,102615.91
